createdAt,value
2022-08-01T00:00:15.195Z,1.95
2022-08-01T00:03:02.375Z,1.90
2022-08-01T00:05:29.494Z,2.13
2022-08-01T00:07:56.413Z,2.10
2022-08-01T00:10:23.686Z,2.15
2022-08-01T00:12:51.190Z,2.92
2022-08-01T00:15:18.726Z,1.85
2022-08-01T00:17:45.723Z,1.70
2022-08-01T00:20:15.442Z,1.88
2022-08-01T00:22:42.348Z,1.60
2022-08-01T00:25:09.556Z,1.80
2022-08-01T00:27:37.733Z,1.60
2022-08-01T00:30:11.729Z,1.52
2022-08-01T00:32:42.617Z,1.67
2022-08-01T00:35:09.833Z,1.48
2022-08-01T00:37:36.650Z,1.88
2022-08-01T00:40:04.283Z,1.30
2022-08-01T00:42:31.159Z,1.58
2022-08-01T00:44:58.041Z,1.23
2022-08-01T00:47:25.128Z,1.60
2022-08-01T00:49:52.152Z,1.25
2022-08-01T00:52:19.307Z,2.05
2022-08-01T00:54:46.588Z,1.33
2022-08-01T00:57:15.105Z,2.05
2022-08-01T00:59:42.697Z,1.27
2022-08-01T01:02:14.753Z,1.23
2022-08-01T01:04:44.141Z,1.25
2022-08-01T01:07:20.293Z,1.15
2022-08-01T01:09:52.569Z,1.27
2022-08-01T01:12:49.960Z,1.00
2022-08-01T01:15:27.691Z,0.90
2022-08-01T01:18:23.202Z,0.93
2022-08-01T01:21:03.891Z,1.00
2022-08-01T01:23:49.122Z,1.02
2022-08-01T01:26:24.552Z,1.00
2022-08-01T01:29:10.169Z,1.17
2022-08-01T01:31:44.455Z,1.23
2022-08-01T01:34:14.586Z,1.23
2022-08-01T01:36:44.605Z,1.08
2022-08-01T01:39:12.770Z,1.27
2022-08-01T01:41:40.202Z,1.00
2022-08-01T01:44:08.387Z,1.20
2022-08-01T01:46:36.935Z,1.30
2022-08-01T01:49:05.573Z,1.10
2022-08-01T01:51:33.976Z,1.30
2022-08-01T01:54:03.515Z,0.80
2022-08-01T01:56:32.103Z,1.00
2022-08-01T01:59:02.429Z,0.90
2022-08-01T02:01:58.390Z,1.20
2022-08-01T02:04:21.860Z,0.90
2022-08-01T02:06:53.678Z,1.05
2022-08-01T02:09:22.520Z,0.93
2022-08-01T02:12:08.295Z,1.00
2022-08-01T02:14:36.846Z,1.00
2022-08-01T02:17:07.297Z,1.00
2022-08-01T02:19:38.137Z,0.90
2022-08-01T02:22:17.797Z,1.00
2022-08-01T02:24:52.291Z,0.95
2022-08-01T02:27:56.818Z,1.20
2022-08-01T02:30:26.636Z,1.00
2022-08-01T02:33:06.891Z,1.00
2022-08-01T02:36:30.961Z,0.98
2022-08-01T02:38:33.427Z,0.90
2022-08-01T02:41:06.442Z,1.13
2022-08-01T02:43:37.762Z,1.10
2022-08-01T02:46:06.236Z,1.00
2022-08-01T02:48:37.578Z,1.00
2022-08-01T02:51:07.336Z,0.98
2022-08-01T02:53:44.169Z,1.20
2022-08-01T02:56:14.538Z,1.00
2022-08-01T03:01:11.286Z,1.00
2022-08-01T03:03:39.033Z,1.08
2022-08-01T03:06:07.546Z,0.88
2022-08-01T03:08:36.728Z,1.00
2022-08-01T03:11:06.069Z,1.08
2022-08-01T03:13:34.325Z,0.70
2022-08-01T03:16:03.761Z,0.82
2022-08-01T03:18:32.501Z,0.95
2022-08-01T03:21:02.680Z,0.80
2022-08-01T03:23:37.820Z,0.88
2022-08-01T03:26:07.002Z,0.75
2022-08-01T03:28:34.438Z,0.90
2022-08-01T03:31:03.098Z,0.70
2022-08-01T03:33:30.466Z,1.15
2022-08-01T03:35:59.742Z,1.02
2022-08-01T03:38:28.196Z,1.33
2022-08-01T03:41:00.031Z,1.10
2022-08-01T03:43:42.659Z,1.50
2022-08-01T03:46:14.699Z,1.50
2022-08-01T03:48:48.472Z,1.40
2022-08-01T03:51:18.350Z,1.50
2022-08-01T03:53:46.371Z,1.67
2022-08-01T03:56:17.721Z,1.50
2022-08-01T03:58:44.935Z,1.80
2022-08-01T04:01:18.105Z,2.35
2022-08-01T04:03:46.041Z,2.78
2022-08-01T04:06:15.037Z,3.20
2022-08-01T04:08:42.740Z,3.50
2022-08-01T04:11:10.975Z,3.50
2022-08-01T04:13:38.290Z,3.38
2022-08-01T04:16:06.286Z,3.90
2022-08-01T04:18:33.457Z,4.13
2022-08-01T04:21:00.332Z,3.70
2022-08-01T04:23:32.502Z,3.40
2022-08-01T04:26:05.163Z,3.60
2022-08-01T04:28:35.805Z,3.22
2022-08-01T04:31:05.872Z,3.00
2022-08-01T04:33:37.535Z,3.15
2022-08-01T04:36:07.518Z,3.00
2022-08-01T04:38:37.784Z,2.90
2022-08-01T04:41:09.190Z,3.10
2022-08-01T04:43:38.295Z,3.30
2022-08-01T04:46:06.849Z,3.15
2022-08-01T04:48:35.767Z,3.55
2022-08-01T04:51:02.641Z,3.50
2022-08-01T04:53:29.480Z,3.90
2022-08-01T04:55:56.801Z,4.35
2022-08-01T04:58:23.637Z,4.20
2022-08-01T05:00:50.618Z,4.07
2022-08-01T05:03:17.749Z,4.05
2022-08-01T05:05:44.926Z,4.00
2022-08-01T05:08:11.826Z,3.25
2022-08-01T05:10:39.227Z,4.00
2022-08-01T05:26:02.752Z,3.08
2022-08-01T05:28:29.866Z,2.80
2022-08-01T05:30:57.667Z,2.53
2022-08-01T05:33:24.713Z,2.63
2022-08-01T05:35:51.873Z,2.33
2022-08-01T05:38:18.784Z,2.78
2022-08-01T05:40:45.761Z,2.80
2022-08-01T05:43:12.903Z,2.45
2022-08-01T05:45:39.894Z,2.15
2022-08-01T05:48:07.167Z,2.60
2022-08-01T05:50:34.888Z,2.15
2022-08-01T05:53:01.888Z,2.55
2022-08-01T05:55:28.752Z,2.20
2022-08-01T05:57:55.833Z,2.22
2022-08-01T06:00:22.736Z,2.10
2022-08-01T06:02:49.702Z,2.00
2022-08-01T06:05:16.969Z,2.38
2022-08-01T06:07:43.855Z,3.00
2022-08-01T06:10:10.834Z,2.60
2022-08-01T06:12:39.060Z,2.45
2022-08-01T06:15:07.440Z,2.05
2022-08-01T06:17:34.883Z,1.57
2022-08-01T06:20:02.365Z,1.90
2022-08-01T06:22:29.426Z,1.95
2022-08-01T06:24:57.935Z,1.92
2022-08-01T06:27:27.047Z,1.50
2022-08-01T06:29:57.689Z,1.88
2022-08-01T06:32:26.940Z,1.65
2022-08-01T06:34:56.123Z,1.90
2022-08-01T06:37:23.731Z,1.92
2022-08-01T06:39:51.138Z,2.35
2022-08-01T06:42:18.764Z,2.05
2022-08-01T06:44:46.332Z,2.08
2022-08-01T06:47:13.464Z,2.03
2022-08-01T06:49:40.607Z,2.67
2022-08-01T06:52:07.840Z,2.95
2022-08-01T06:54:35.077Z,2.80
2022-08-01T06:57:05.531Z,2.17
2022-08-01T06:59:32.586Z,2.03
2022-08-01T07:01:59.470Z,4.57
2022-08-01T07:04:26.643Z,4.43
2022-08-01T07:06:53.592Z,3.08
2022-08-01T07:09:20.432Z,3.58
2022-08-01T07:11:47.560Z,4.60
2022-08-01T07:14:14.455Z,4.97
2022-08-01T07:16:41.301Z,4.15
2022-08-01T07:19:09.028Z,6.80
2022-08-01T07:21:39.146Z,15.05
2022-08-01T07:24:13.377Z,6.28
2022-08-01T07:26:53.883Z,5.25
2022-08-01T07:29:23.595Z,7.53
2022-08-01T07:31:51.373Z,4.95
2022-08-01T07:34:18.350Z,4.80
2022-08-01T07:36:45.210Z,4.05
2022-08-01T07:39:12.431Z,4.63
2022-08-01T07:41:53.454Z,6.13
2022-08-01T07:44:28.154Z,6.00
2022-08-01T07:46:56.324Z,6.50
2022-08-01T07:49:23.432Z,15.10
2022-08-01T07:52:13.582Z,7.53
2022-08-01T07:54:37.895Z,6.60
2022-08-01T07:57:06.418Z,8.15
2022-08-01T07:59:34.021Z,7.65
2022-08-01T08:02:01.204Z,9.07
2022-08-01T08:04:29.015Z,8.98
2022-08-01T08:06:55.954Z,8.70
2022-08-01T08:09:23.071Z,9.57
2022-08-01T08:11:50.191Z,11.23
2022-08-01T08:14:17.745Z,19.10
2022-08-01T08:16:45.028Z,10.15
2022-08-01T08:19:12.731Z,9.88
2022-08-01T08:21:40.102Z,10.90
2022-08-01T08:24:26.267Z,12.38
2022-08-01T08:26:59.527Z,12.05
2022-08-01T08:29:30.732Z,14.18
2022-08-01T08:31:58.983Z,17.02
2022-08-01T08:34:27.185Z,13.68
2022-08-01T08:36:56.272Z,11.60
2022-08-01T08:39:24.307Z,10.38
2022-08-01T08:41:51.642Z,10.43
2022-08-01T08:44:19.657Z,9.80
2022-08-01T08:46:49.619Z,8.55
2022-08-01T08:49:20.103Z,8.05
2022-08-01T08:51:50.364Z,9.43
2022-08-01T08:54:19.469Z,8.95
2022-08-01T08:56:47.539Z,9.82
2022-08-01T08:59:15.350Z,10.50
2022-08-01T09:01:43.557Z,9.55
2022-08-01T09:04:11.033Z,12.05
2022-08-01T09:06:39.111Z,10.73
2022-08-01T09:09:07.058Z,10.52
2022-08-01T09:11:34.988Z,9.57
2022-08-01T09:14:08.107Z,8.02
2022-08-01T09:16:36.347Z,8.43
2022-08-01T09:19:16.158Z,8.60
2022-08-01T09:22:07.290Z,9.32
2022-08-01T09:24:35.756Z,8.20
2022-08-01T09:27:18.082Z,8.03
2022-08-01T09:29:54.340Z,8.43
2022-08-01T09:32:34.693Z,7.10
2022-08-01T09:35:30.025Z,7.07
2022-08-01T09:38:24.583Z,7.45
2022-08-01T09:40:59.049Z,6.55
2022-08-01T09:43:28.857Z,7.15
2022-08-01T09:45:58.219Z,6.05
2022-08-01T09:48:28.332Z,4.80
2022-08-01T09:51:04.190Z,4.88
2022-08-01T09:53:51.840Z,4.43
2022-08-01T09:56:21.451Z,4.05
2022-08-01T09:58:58.422Z,3.30
2022-08-01T10:01:26.921Z,3.75
2022-08-01T10:04:10.729Z,3.60
2022-08-01T10:06:39.172Z,3.30
2022-08-01T10:09:06.452Z,3.60
2022-08-01T10:11:36.307Z,3.78
2022-08-01T10:14:05.459Z,3.75
2022-08-01T10:16:34.769Z,3.35
2022-08-01T10:19:11.230Z,3.80
2022-08-01T10:24:25.486Z,12.00
2022-08-01T10:27:06.136Z,9.80
2022-08-01T10:29:46.074Z,2.55
2022-08-01T10:32:14.456Z,3.23
2022-08-01T10:34:44.876Z,2.60
2022-08-01T10:37:14.291Z,3.10
2022-08-01T10:39:43.869Z,2.60
2022-08-01T10:42:15.689Z,2.10
2022-08-01T10:44:47.045Z,2.20
2022-08-01T10:47:22.965Z,2.58
2022-08-01T10:52:39.154Z,2.10
2022-08-01T10:55:10.632Z,1.60
2022-08-01T10:57:52.900Z,2.05
2022-08-01T11:00:22.343Z,1.77
2022-08-01T11:05:36.523Z,1.60
2022-08-01T11:08:12.133Z,1.60
2022-08-01T11:10:44.028Z,1.88
2022-08-01T11:13:13.630Z,3.53
2022-08-01T11:18:38.051Z,2.25
2022-08-01T11:21:59.015Z,1.80
2022-08-01T11:23:54.604Z,1.70
2022-08-01T11:26:29.594Z,1.77
2022-08-01T11:29:20.982Z,1.55
2022-08-01T11:31:49.508Z,1.98
2022-08-01T11:34:16.869Z,1.90
2022-08-01T11:36:59.914Z,2.47
2022-08-01T11:39:27.871Z,3.97
2022-08-01T11:42:16.668Z,2.20
2022-08-01T11:44:51.409Z,1.77
2022-08-01T11:47:18.345Z,1.90
2022-08-01T11:49:51.781Z,1.92
2022-08-01T11:52:28.135Z,1.60
2022-08-01T11:55:10.384Z,2.03
2022-08-01T11:57:39.222Z,2.08
2022-08-01T12:00:16.909Z,1.80
2022-08-01T12:02:59.074Z,2.08
2022-08-01T12:05:28.536Z,1.80
2022-08-01T12:07:58.972Z,1.58
2022-08-01T12:10:29.929Z,1.55
2022-08-01T12:13:01.590Z,1.83
2022-08-01T12:15:34.360Z,1.20
2022-08-01T12:18:06.399Z,1.40
2022-08-01T12:20:35.778Z,1.42
2022-08-01T12:23:08.506Z,1.73
2022-08-01T12:25:36.853Z,1.48
2022-08-01T12:28:06.288Z,3.55
2022-08-01T12:30:37.058Z,2.38
2022-08-01T12:33:10.336Z,1.60
2022-08-01T12:35:39.313Z,1.30
2022-08-01T12:38:15.058Z,1.63
2022-08-01T12:40:45.634Z,1.63
2022-08-01T12:43:27.194Z,1.52
2022-08-01T12:45:56.584Z,1.10
2022-08-01T12:48:26.460Z,1.42
2022-08-01T12:53:22.379Z,1.65
2022-08-01T12:55:59.273Z,1.52
2022-08-01T12:58:34.614Z,2.15
2022-08-01T13:01:07.554Z,2.30
2022-08-01T13:03:34.511Z,2.25
2022-08-01T13:06:01.556Z,2.42
2022-08-01T13:08:34.001Z,2.35
2022-08-01T13:11:15.596Z,1.92
2022-08-01T13:13:51.006Z,1.95
2022-08-01T13:16:27.980Z,1.92
2022-08-01T13:19:07.126Z,2.67
2022-08-01T13:24:30.739Z,2.13
2022-08-01T13:27:05.498Z,2.22
2022-08-01T13:29:35.365Z,1.90
2022-08-01T13:32:28.499Z,1.88
2022-08-01T13:35:06.059Z,1.70
2022-08-01T13:37:33.160Z,3.28
2022-08-01T13:40:00.372Z,1.90
2022-08-01T13:42:27.455Z,1.90
2022-08-01T13:44:54.392Z,2.13
2022-08-01T13:47:31.661Z,1.30
2022-08-01T13:50:03.298Z,1.40
2022-08-01T13:52:31.870Z,1.40
2022-08-01T13:55:00.410Z,1.60
2022-08-01T13:57:36.747Z,1.67
2022-08-01T14:00:08.388Z,1.85
2022-08-01T14:02:35.414Z,1.38
2022-08-01T14:05:02.603Z,1.80
2022-08-01T14:07:29.908Z,1.48
2022-08-01T14:10:05.109Z,1.58
2022-08-01T14:12:45.953Z,2.03
2022-08-01T14:15:13.039Z,2.00
2022-08-01T14:17:40.698Z,2.10
2022-08-01T14:20:15.261Z,2.28
2022-08-01T14:22:42.187Z,2.03
2022-08-01T14:25:09.623Z,2.05
2022-08-01T14:27:37.378Z,2.15
2022-08-01T14:30:05.460Z,2.60
2022-08-01T14:32:34.349Z,2.13
2022-08-01T14:35:03.392Z,3.10
2022-08-01T14:37:32.620Z,2.60
2022-08-01T14:40:07.276Z,15.40
2022-08-01T14:42:34.847Z,8.82
2022-08-01T14:45:01.891Z,74.28
2022-08-01T14:47:29.009Z,20.63
2022-08-01T14:49:55.939Z,4.00
2022-08-01T14:52:22.794Z,2.97
2022-08-01T14:54:50.048Z,2.83
2022-08-01T14:57:19.347Z,3.10
2022-08-01T14:59:47.475Z,2.90
2022-08-01T15:02:18.130Z,3.43
2022-08-01T15:04:46.581Z,3.05
2022-08-01T15:07:13.966Z,3.00
2022-08-01T15:09:41.513Z,4.60
2022-08-01T15:12:09.122Z,3.22
2022-08-01T15:14:54.456Z,2.88
2022-08-01T15:17:24.215Z,3.22
2022-08-01T15:19:53.795Z,2.47
2022-08-01T15:22:22.615Z,3.30
2022-08-01T15:24:56.839Z,2.83
2022-08-01T15:27:25.429Z,2.90
2022-08-01T15:29:53.253Z,2.65
2022-08-01T15:32:20.361Z,3.10
2022-08-01T15:34:48.325Z,3.47
2022-08-01T15:37:15.911Z,2.83
2022-08-01T15:39:43.070Z,2.65
2022-08-01T15:42:13.317Z,2.35
2022-08-01T15:44:47.809Z,2.60
2022-08-01T15:47:14.764Z,2.05
2022-08-01T15:49:41.739Z,3.08
2022-08-01T15:52:22.144Z,2.70
2022-08-01T15:54:50.344Z,4.78
2022-08-01T15:57:17.862Z,9.60
2022-08-01T15:59:44.768Z,5.43
2022-08-01T16:02:11.970Z,3.38
2022-08-01T16:04:39.268Z,7.13
2022-08-01T16:07:06.615Z,3.72
2022-08-01T16:09:33.602Z,3.40
2022-08-01T16:12:01.072Z,3.30
2022-08-01T16:14:28.053Z,2.60
2022-08-01T16:16:55.175Z,9.38
2022-08-01T16:19:22.563Z,3.60
2022-08-01T16:21:49.854Z,5.03
2022-08-01T16:24:17.232Z,3.63
2022-08-01T16:26:44.397Z,5.90
2022-08-01T16:29:11.200Z,5.38
2022-08-01T16:31:58.575Z,3.30
2022-08-01T16:34:25.208Z,3.60
2022-08-01T16:36:53.441Z,3.55
2022-08-01T16:39:23.273Z,2.60
2022-08-01T16:41:54.852Z,3.67
2022-08-01T16:44:33.750Z,3.25
2022-08-01T16:47:03.907Z,4.20
2022-08-01T16:49:34.040Z,2.75
2022-08-01T16:52:01.031Z,3.05
2022-08-01T16:54:28.268Z,2.75
2022-08-01T16:56:57.956Z,4.45
2022-08-01T16:59:35.412Z,30.55
2022-08-01T17:02:10.545Z,53.45
2022-08-01T17:07:04.842Z,6.18
2022-08-01T17:09:31.969Z,4.90
2022-08-01T17:11:59.128Z,9.07
2022-08-01T17:14:31.693Z,4.18
2022-08-01T17:16:58.550Z,32.00
2022-08-01T17:19:32.948Z,21.80
2022-08-01T17:22:00.609Z,13.55
2022-08-01T17:24:27.924Z,21.98
2022-08-01T17:26:54.934Z,10.85
2022-08-01T17:29:21.873Z,6.30
2022-08-01T17:31:49.332Z,13.68
2022-08-01T17:34:16.839Z,6.38
2022-08-01T17:36:43.821Z,4.18
2022-08-01T17:39:12.508Z,3.85
2022-08-01T17:41:40.500Z,3.13
2022-08-01T17:44:08.677Z,4.43
2022-08-01T17:46:35.816Z,5.45
2022-08-01T17:49:04.014Z,10.02
2022-08-01T17:51:31.194Z,8.30
2022-08-01T17:53:58.715Z,8.43
2022-08-01T17:56:27.130Z,7.18
2022-08-01T17:58:54.122Z,7.03
2022-08-01T18:01:21.577Z,6.90
2022-08-01T18:03:48.903Z,22.20
2022-08-01T18:06:23.343Z,13.27
2022-08-01T18:08:53.293Z,35.50
2022-08-01T18:11:24.678Z,8.65
2022-08-01T18:13:54.734Z,7.28
2022-08-01T18:16:22.061Z,9.73
2022-08-01T18:18:49.095Z,21.55
2022-08-01T18:21:16.350Z,15.50
2022-08-01T18:23:44.215Z,14.85
2022-08-01T18:26:18.884Z,12.02
2022-08-01T18:28:46.716Z,13.85
2022-08-01T18:31:16.797Z,13.40
2022-08-01T18:33:44.356Z,12.15
2022-08-01T18:36:16.141Z,11.80
2022-08-01T18:38:59.647Z,13.48
2022-08-01T18:41:26.886Z,26.60
2022-08-01T18:44:05.334Z,12.77
2022-08-01T18:46:37.258Z,14.80
2022-08-01T18:49:05.694Z,16.02
2022-08-01T18:51:32.664Z,15.82
2022-08-01T18:53:59.913Z,17.65
2022-08-01T18:56:26.852Z,17.75
2022-08-01T18:58:54.813Z,16.50
2022-08-01T19:01:22.571Z,19.48
2022-08-01T19:03:49.750Z,16.45
2022-08-01T19:06:16.843Z,16.20
2022-08-01T19:08:44.803Z,15.40
2022-08-01T19:11:11.912Z,15.88
2022-08-01T19:13:38.934Z,12.98
2022-08-01T19:16:06.102Z,13.68
2022-08-01T19:18:33.990Z,12.88
2022-08-01T19:21:04.636Z,13.50
2022-08-01T19:23:50.654Z,13.00
2022-08-01T19:26:20.916Z,15.05
2022-08-01T19:28:53.516Z,17.50
2022-08-01T19:31:26.864Z,22.48
2022-08-01T19:33:55.634Z,22.08
2022-08-01T19:36:23.312Z,28.17
2022-08-01T19:38:50.728Z,25.33
2022-08-01T19:41:18.954Z,30.00
2022-08-01T19:43:48.221Z,34.60
2022-08-01T19:46:17.576Z,38.78
2022-08-01T19:48:49.988Z,39.38
2022-08-01T19:51:21.768Z,36.67
2022-08-01T19:53:55.197Z,33.80
2022-08-01T19:56:26.358Z,33.38
2022-08-01T19:59:00.355Z,28.05
2022-08-01T20:01:27.933Z,27.55
2022-08-01T20:03:56.291Z,26.17
2022-08-01T20:06:26.333Z,26.50
2022-08-01T20:08:54.730Z,26.05
2022-08-01T20:11:23.561Z,26.08
2022-08-01T20:13:51.595Z,26.77
2022-08-01T20:16:18.893Z,22.48
2022-08-01T20:18:46.292Z,22.00
2022-08-01T20:21:13.882Z,22.02
2022-08-01T20:23:43.102Z,19.20
2022-08-01T20:28:41.939Z,19.95
2022-08-01T20:31:10.334Z,21.05
2022-08-01T20:33:43.539Z,22.48
2022-08-01T20:36:12.402Z,20.55
2022-08-01T20:38:55.107Z,21.73
2022-08-01T20:41:26.674Z,19.77
2022-08-01T20:43:56.940Z,19.77
2022-08-01T20:46:27.996Z,18.73
2022-08-01T20:48:57.728Z,19.58
2022-08-01T20:51:26.468Z,18.58
2022-08-01T20:53:55.259Z,17.95
2022-08-01T20:56:28.935Z,18.38
2022-08-01T20:59:00.652Z,18.92
2022-08-01T21:01:31.055Z,18.40
2022-08-01T21:04:22.290Z,17.98
2022-08-01T21:06:54.992Z,17.13
2022-08-01T21:09:24.387Z,16.33
2022-08-01T21:12:00.668Z,16.08
2022-08-01T21:14:46.291Z,15.50
2022-08-01T21:17:19.008Z,15.55
2022-08-01T21:19:50.754Z,14.75
2022-08-01T21:22:37.279Z,14.77
2022-08-01T21:25:11.077Z,15.45
2022-08-01T21:27:40.607Z,14.63
2022-08-01T21:32:36.778Z,14.27
2022-08-01T21:35:06.010Z,12.53
2022-08-01T21:37:44.754Z,12.00
2022-08-01T21:40:21.778Z,11.93
2022-08-01T21:42:51.415Z,12.45
2022-08-01T21:45:24.028Z,12.52
2022-08-01T21:47:52.404Z,12.02
2022-08-01T21:50:19.756Z,12.30
2022-08-01T21:52:50.471Z,12.95
2022-08-01T21:55:22.299Z,11.35
2022-08-01T21:58:29.579Z,11.80
2022-08-01T22:01:05.693Z,13.35
2022-08-01T22:03:53.424Z,12.93
2022-08-01T22:06:22.037Z,12.43
2022-08-01T22:08:52.488Z,11.73
2022-08-01T22:11:29.087Z,12.82
2022-08-01T22:13:59.372Z,12.55
2022-08-01T22:16:27.613Z,12.98
2022-08-01T22:18:54.664Z,12.27
2022-08-01T22:21:22.162Z,11.15
2022-08-01T22:23:52.933Z,11.80
2022-08-01T22:26:27.115Z,10.82
2022-08-01T22:28:56.255Z,11.38
2022-08-01T22:31:23.846Z,10.68
2022-08-01T22:33:50.868Z,11.02
2022-08-01T22:36:19.765Z,12.00
2022-08-01T22:38:46.800Z,11.52
2022-08-01T22:41:18.151Z,11.98
2022-08-01T22:43:57.848Z,11.75
2022-08-01T22:46:33.903Z,11.15
2022-08-01T22:49:15.161Z,12.13
2022-08-01T22:51:56.037Z,11.18
2022-08-01T22:54:35.219Z,11.63
2022-08-01T22:57:07.618Z,11.98
2022-08-01T22:59:58.295Z,12.27
2022-08-01T23:02:28.365Z,11.75
2022-08-01T23:05:02.130Z,11.05
2022-08-01T23:07:33.693Z,10.73
2022-08-01T23:10:05.382Z,10.50
2022-08-01T23:12:32.600Z,11.00
2022-08-01T23:15:00.884Z,11.75
2022-08-01T23:17:31.114Z,10.80
2022-08-01T23:20:03.678Z,10.70
2022-08-01T23:22:34.313Z,11.18
2022-08-01T23:25:06.283Z,10.82
2022-08-01T23:27:55.945Z,11.23
2022-08-01T23:30:31.627Z,12.48
2022-08-01T23:32:59.276Z,11.65
2022-08-01T23:35:27.218Z,11.88
2022-08-01T23:37:58.588Z,11.13
2022-08-01T23:40:34.347Z,9.70
2022-08-01T23:43:02.530Z,9.75
2022-08-01T23:46:02.692Z,10.02
2022-08-01T23:48:17.700Z,10.00
2022-08-01T23:50:44.639Z,10.40
2022-08-01T23:53:11.858Z,9.63
2022-08-01T23:55:40.606Z,10.00
2022-08-01T23:58:10.491Z,9.48
